sensor_id;sensor_type;location;lat;lon;timestamp;pressure;altitude;pressure_sealevel;temperature;humidity
51524;BME280;37610;51.790;21.590;2022-08-11T00:00:41;100932.13;;;14.47;62.13
51524;BME280;37610;51.790;21.590;2022-08-11T00:05:27;100928.44;;;14.47;62.37
51524;BME280;37610;51.790;21.590;2022-08-11T00:10:42;100925.27;;;14.43;62.63
51524;BME280;37610;51.790;21.590;2022-08-11T00:15:37;100928.03;;;14.59;62.55
51524;BME280;37610;51.790;21.590;2022-08-11T00:20:15;100929.84;;;14.69;62.61
51524;BME280;37610;51.790;21.590;2022-08-11T00:24:59;100928.95;;;14.75;62.28
51524;BME280;37610;51.790;21.590;2022-08-11T00:29:52;100924.16;;;14.88;62.17
51524;BME280;37610;51.790;21.590;2022-08-11T00:34:48;100919.04;;;14.99;62.09
51524;BME280;37610;51.790;21.590;2022-08-11T00:39:43;100922.06;;;15.00;62.27
51524;BME280;37610;51.790;21.590;2022-08-11T00:44:44;100916.77;;;14.94;61.99
51524;BME280;37610;51.790;21.590;2022-08-11T00:55:02;100916.30;;;15.03;62.09
51524;BME280;37610;51.790;21.590;2022-08-11T00:59:47;100921.35;;;15.10;61.91
51524;BME280;37610;51.790;21.590;2022-08-11T01:24:58;100923.27;;;14.93;62.29
51524;BME280;37610;51.790;21.590;2022-08-11T01:35:19;100919.08;;;14.80;62.33
51524;BME280;37610;51.790;21.590;2022-08-11T01:40:38;100915.27;;;14.78;62.32
51524;BME280;37610;51.790;21.590;2022-08-11T01:45:49;100914.83;;;14.75;62.50
51524;BME280;37610;51.790;21.590;2022-08-11T01:51:13;100915.44;;;14.71;62.64
51524;BME280;37610;51.790;21.590;2022-08-11T02:01:44;100911.77;;;14.86;62.73
51524;BME280;37610;51.790;21.590;2022-08-11T02:11:40;100913.43;;;14.90;63.00
51524;BME280;37610;51.790;21.590;2022-08-11T02:16:47;100913.90;;;14.84;62.74
51524;BME280;37610;51.790;21.590;2022-08-11T02:21:30;100917.05;;;14.84;62.73
51524;BME280;37610;51.790;21.590;2022-08-11T02:26:28;100920.27;;;14.89;62.79
51524;BME280;37610;51.790;21.590;2022-08-11T02:31:15;100918.15;;;14.94;62.65
51524;BME280;37610;51.790;21.590;2022-08-11T02:36:06;100922.04;;;14.93;62.62
51524;BME280;37610;51.790;21.590;2022-08-11T02:46:04;100922.26;;;14.70;62.89
51524;BME280;37610;51.790;21.590;2022-08-11T02:55:44;100925.56;;;14.56;63.12
51524;BME280;37610;51.790;21.590;2022-08-11T03:00:28;100922.66;;;14.55;63.34
51524;BME280;37610;51.790;21.590;2022-08-11T03:05:32;100921.37;;;14.52;63.04
51524;BME280;37610;51.790;21.590;2022-08-11T03:09:59;100922.48;;;14.40;63.42
51524;BME280;37610;51.790;21.590;2022-08-11T03:15:02;100919.73;;;14.34;63.72
51524;BME280;37610;51.790;21.590;2022-08-11T03:19:28;100926.27;;;14.33;63.86
51524;BME280;37610;51.790;21.590;2022-08-11T03:24:18;100923.73;;;14.30;64.03
51524;BME280;37610;51.790;21.590;2022-08-11T03:34:05;100930.77;;;14.33;64.31
51524;BME280;37610;51.790;21.590;2022-08-11T03:39:04;100930.44;;;14.43;64.35
51524;BME280;37610;51.790;21.590;2022-08-11T03:43:51;100930.31;;;14.50;64.56
51524;BME280;37610;51.790;21.590;2022-08-11T03:53:34;100930.15;;;14.71;64.41
51524;BME280;37610;51.790;21.590;2022-08-11T04:03:17;100935.30;;;14.92;64.27
51524;BME280;37610;51.790;21.590;2022-08-11T04:18:01;100935.42;;;15.12;64.49
51524;BME280;37610;51.790;21.590;2022-08-11T04:24:26;100938.17;;;15.18;64.42
51524;BME280;37610;51.790;21.590;2022-08-11T04:28:05;100942.96;;;15.32;64.71
51524;BME280;37610;51.790;21.590;2022-08-11T04:32:30;100939.80;;;15.45;64.71
51524;BME280;37610;51.790;21.590;2022-08-11T04:37:19;100942.45;;;15.60;64.65
51524;BME280;37610;51.790;21.590;2022-08-11T04:47:11;100945.39;;;15.89;64.75
51524;BME280;37610;51.790;21.590;2022-08-11T04:52:01;100949.70;;;16.02;64.43
51524;BME280;37610;51.790;21.590;2022-08-11T04:56:35;100949.05;;;16.14;64.38
51524;BME280;37610;51.790;21.590;2022-08-11T05:06:09;100948.35;;;16.38;64.27
51524;BME280;37610;51.790;21.590;2022-08-11T05:15:46;100949.15;;;16.64;64.29
51524;BME280;37610;51.790;21.590;2022-08-11T05:20:24;100945.14;;;16.69;64.73
51524;BME280;37610;51.790;21.590;2022-08-11T05:25:11;100944.59;;;16.77;64.96
51524;BME280;37610;51.790;21.590;2022-08-11T05:29:56;100945.58;;;16.87;64.38
51524;BME280;37610;51.790;21.590;2022-08-11T05:34:32;100943.70;;;16.99;64.27
51524;BME280;37610;51.790;21.590;2022-08-11T05:39:20;100941.48;;;17.04;64.62
51524;BME280;37610;51.790;21.590;2022-08-11T05:43:59;100939.77;;;17.17;64.39
51524;BME280;37610;51.790;21.590;2022-08-11T05:48:39;100941.94;;;17.34;64.38
51524;BME280;37610;51.790;21.590;2022-08-11T05:53:20;100943.02;;;17.50;64.34
51524;BME280;37610;51.790;21.590;2022-08-11T05:58:01;100943.81;;;17.65;64.23
51524;BME280;37610;51.790;21.590;2022-08-11T06:03:05;100950.39;;;17.81;63.93
51524;BME280;37610;51.790;21.590;2022-08-11T06:07:52;100950.42;;;18.02;63.76
51524;BME280;37610;51.790;21.590;2022-08-11T06:12:42;100949.81;;;18.22;63.55
51524;BME280;37610;51.790;21.590;2022-08-11T06:17:42;100949.58;;;18.42;63.27
51524;BME280;37610;51.790;21.590;2022-08-11T06:22:23;100946.17;;;18.59;63.06
51524;BME280;37610;51.790;21.590;2022-08-11T06:27:10;100946.00;;;18.73;62.79
51524;BME280;37610;51.790;21.590;2022-08-11T06:31:57;100936.77;;;18.89;62.55
51524;BME280;37610;51.790;21.590;2022-08-11T06:36:49;100936.27;;;19.03;62.28
51524;BME280;37610;51.790;21.590;2022-08-11T06:41:58;100943.06;;;19.15;62.05
51524;BME280;37610;51.790;21.590;2022-08-11T06:46:47;100941.73;;;19.30;61.79
51524;BME280;37610;51.790;21.590;2022-08-11T06:51:25;100940.67;;;19.44;61.62
51524;BME280;37610;51.790;21.590;2022-08-11T06:56:28;100939.30;;;19.62;61.26
51524;BME280;37610;51.790;21.590;2022-08-11T07:01:11;100934.55;;;19.76;61.09
51524;BME280;37610;51.790;21.590;2022-08-11T07:06:02;100934.51;;;19.95;60.76
51524;BME280;37610;51.790;21.590;2022-08-11T07:10:46;100937.56;;;20.14;60.24
51524;BME280;37610;51.790;21.590;2022-08-11T07:15:23;100942.64;;;20.30;59.45
51524;BME280;37610;51.790;21.590;2022-08-11T07:20:39;100941.38;;;20.42;59.23
51524;BME280;37610;51.790;21.590;2022-08-11T07:25:25;100936.21;;;20.52;58.84
51524;BME280;37610;51.790;21.590;2022-08-11T07:30:06;100935.20;;;20.65;58.71
51524;BME280;37610;51.790;21.590;2022-08-11T07:35:12;100934.45;;;20.78;58.40
51524;BME280;37610;51.790;21.590;2022-08-11T07:39:57;100932.63;;;20.93;58.44
51524;BME280;37610;51.790;21.590;2022-08-11T07:44:41;100935.69;;;21.00;57.52
51524;BME280;37610;51.790;21.590;2022-08-11T07:49:21;100929.67;;;21.07;57.54
51524;BME280;37610;51.790;21.590;2022-08-11T07:54:01;100927.73;;;21.19;57.48
51524;BME280;37610;51.790;21.590;2022-08-11T07:58:52;100921.04;;;21.30;56.59
51524;BME280;37610;51.790;21.590;2022-08-11T08:03:32;100918.05;;;21.44;56.51
51524;BME280;37610;51.790;21.590;2022-08-11T08:08:13;100915.59;;;21.58;56.13
51524;BME280;37610;51.790;21.590;2022-08-11T08:12:53;100912.45;;;21.68;55.79
51524;BME280;37610;51.790;21.590;2022-08-11T08:17:33;100909.23;;;21.70;55.02
51524;BME280;37610;51.790;21.590;2022-08-11T08:22:20;100913.13;;;21.72;54.70
51524;BME280;37610;51.790;21.590;2022-08-11T08:27:02;100910.94;;;21.89;55.14
51524;BME280;37610;51.790;21.590;2022-08-11T08:31:59;100908.39;;;22.01;53.47
51524;BME280;37610;51.790;21.590;2022-08-11T08:36:43;100903.86;;;22.15;53.38
51524;BME280;37610;51.790;21.590;2022-08-11T08:41:41;100907.61;;;22.30;52.68
51524;BME280;37610;51.790;21.590;2022-08-11T08:46:35;100902.14;;;22.41;52.39
51524;BME280;37610;51.790;21.590;2022-08-11T08:51:23;100903.27;;;22.59;52.41
51524;BME280;37610;51.790;21.590;2022-08-11T08:56:14;100904.67;;;22.79;50.84
51524;BME280;37610;51.790;21.590;2022-08-11T09:01:03;100901.88;;;22.85;50.66
51524;BME280;37610;51.790;21.590;2022-08-11T09:06:09;100900.81;;;22.87;50.65
51524;BME280;37610;51.790;21.590;2022-08-11T09:11:03;100900.60;;;22.87;50.29
51524;BME280;37610;51.790;21.590;2022-08-11T09:15:43;100895.85;;;22.89;50.48
51524;BME280;37610;51.790;21.590;2022-08-11T09:20:38;100897.02;;;23.00;50.24
51524;BME280;37610;51.790;21.590;2022-08-11T09:25:25;100896.88;;;23.13;50.17
51524;BME280;37610;51.790;21.590;2022-08-11T09:30:05;100895.02;;;23.20;49.35
51524;BME280;37610;51.790;21.590;2022-08-11T09:34:56;100888.22;;;23.29;48.43
51524;BME280;37610;51.790;21.590;2022-08-11T09:39:40;100879.95;;;23.39;48.63
51524;BME280;37610;51.790;21.590;2022-08-11T09:44:20;100872.56;;;23.58;48.15
51524;BME280;37610;51.790;21.590;2022-08-11T09:49:11;100867.97;;;23.68;47.34
51524;BME280;37610;51.790;21.590;2022-08-11T09:53:59;100864.19;;;23.63;47.49
51524;BME280;37610;51.790;21.590;2022-08-11T09:59:05;100865.28;;;23.57;47.12
51524;BME280;37610;51.790;21.590;2022-08-11T10:03:57;100859.10;;;23.63;45.98
51524;BME280;37610;51.790;21.590;2022-08-11T10:08:38;100859.56;;;23.69;46.44
51524;BME280;37610;51.790;21.590;2022-08-11T10:13:30;100863.28;;;23.98;46.07
51524;BME280;37610;51.790;21.590;2022-08-11T10:18:10;100851.33;;;24.10;45.23
51524;BME280;37610;51.790;21.590;2022-08-11T10:23:03;100846.65;;;24.08;45.48
51524;BME280;37610;51.790;21.590;2022-08-11T10:27:42;100842.75;;;24.02;45.40
51524;BME280;37610;51.790;21.590;2022-08-11T10:32:28;100835.05;;;23.91;45.67
51524;BME280;37610;51.790;21.590;2022-08-11T10:37:08;100834.30;;;23.82;44.90
51524;BME280;37610;51.790;21.590;2022-08-11T10:41:59;100833.23;;;23.79;44.12
51524;BME280;37610;51.790;21.590;2022-08-11T10:46:39;100830.30;;;23.76;44.67
51524;BME280;37610;51.790;21.590;2022-08-11T10:51:19;100823.70;;;23.77;44.48
51524;BME280;37610;51.790;21.590;2022-08-11T10:55:59;100820.86;;;23.74;44.00
51524;BME280;37610;51.790;21.590;2022-08-11T11:00:40;100809.73;;;23.72;43.23
51524;BME280;37610;51.790;21.590;2022-08-11T11:05:28;100809.70;;;23.92;43.89
51524;BME280;37610;51.790;21.590;2022-08-11T11:10:18;100809.51;;;24.34;41.34
51524;BME280;37610;51.790;21.590;2022-08-11T11:15:06;100805.38;;;24.69;40.89
51524;BME280;37610;51.790;21.590;2022-08-11T11:19:46;100804.91;;;24.86;40.67
51524;BME280;37610;51.790;21.590;2022-08-11T11:29:50;100776.09;;;25.32;40.40
51524;BME280;37610;51.790;21.590;2022-08-11T11:39:27;100772.40;;;25.73;39.42
51524;BME280;37610;51.790;21.590;2022-08-11T11:44:26;100772.40;;;25.85;39.55
51524;BME280;37610;51.790;21.590;2022-08-11T11:49:17;100782.63;;;25.70;38.79
51524;BME280;37610;51.790;21.590;2022-08-11T11:54:03;100787.58;;;25.39;41.31
51524;BME280;37610;51.790;21.590;2022-08-11T11:58:47;100780.92;;;25.19;42.72
51524;BME280;37610;51.790;21.590;2022-08-11T12:03:27;100775.73;;;25.34;43.11
51524;BME280;37610;51.790;21.590;2022-08-11T12:08:15;100773.08;;;25.58;41.84
51524;BME280;37610;51.790;21.590;2022-08-11T12:13:00;100774.85;;;25.79;41.32
51524;BME280;37610;51.790;21.590;2022-08-11T12:17:39;100781.40;;;26.15;41.15
51524;BME280;37610;51.790;21.590;2022-08-11T12:22:25;100768.66;;;26.45;40.02
51524;BME280;37610;51.790;21.590;2022-08-11T12:27:11;100775.94;;;26.20;38.86
51524;BME280;37610;51.790;21.590;2022-08-11T12:31:54;100818.77;;;25.63;41.50
51524;BME280;37610;51.790;21.590;2022-08-11T12:36:49;100856.30;;;24.24;44.50
51524;BME280;37610;51.790;21.590;2022-08-11T12:41:41;100833.88;;;22.67;46.46
51524;BME280;37610;51.790;21.590;2022-08-11T12:46:22;100818.34;;;21.92;49.09
51524;BME280;37610;51.790;21.590;2022-08-11T12:51:19;100802.94;;;21.18;51.06
51524;BME280;37610;51.790;21.590;2022-08-11T12:55:57;100790.53;;;20.61;53.66
51524;BME280;37610;51.790;21.590;2022-08-11T13:00:36;100789.08;;;20.45;60.57
51524;BME280;37610;51.790;21.590;2022-08-11T13:05:16;100792.76;;;20.56;58.71
51524;BME280;37610;51.790;21.590;2022-08-11T13:10:02;100792.09;;;20.77;59.16
51524;BME280;37610;51.790;21.590;2022-08-11T13:14:41;100784.33;;;21.03;61.00
51524;BME280;37610;51.790;21.590;2022-08-11T13:19:28;100783.14;;;21.47;60.18
51524;BME280;37610;51.790;21.590;2022-08-11T13:24:34;100781.29;;;21.88;61.41
51524;BME280;37610;51.790;21.590;2022-08-11T13:29:40;100778.19;;;22.33;59.23
51524;BME280;37610;51.790;21.590;2022-08-11T13:34:21;100782.19;;;22.22;59.61
51524;BME280;37610;51.790;21.590;2022-08-11T13:39:09;100784.16;;;22.70;62.75
51524;BME280;37610;51.790;21.590;2022-08-11T13:43:59;100775.66;;;23.91;62.04
51524;BME280;37610;51.790;21.590;2022-08-11T13:48:59;100772.23;;;25.12;59.45
51524;BME280;37610;51.790;21.590;2022-08-11T13:53:54;100766.17;;;26.29;56.14
51524;BME280;37610;51.790;21.590;2022-08-11T13:58:36;100761.15;;;26.11;54.36
51524;BME280;37610;51.790;21.590;2022-08-11T14:03:31;100770.20;;;25.45;53.61
51524;BME280;37610;51.790;21.590;2022-08-11T14:08:24;100772.23;;;25.30;55.62
51524;BME280;37610;51.790;21.590;2022-08-11T14:13:29;100767.10;;;26.42;55.40
51524;BME280;37610;51.790;21.590;2022-08-11T14:18:26;100759.98;;;27.26;52.76
51524;BME280;37610;51.790;21.590;2022-08-11T14:23:38;100752.17;;;28.22;50.38
51524;BME280;37610;51.790;21.590;2022-08-11T14:28:45;100748.48;;;28.70;49.31
51524;BME280;37610;51.790;21.590;2022-08-11T14:34:09;100751.67;;;28.90;46.82
51524;BME280;37610;51.790;21.590;2022-08-11T14:38:54;100749.11;;;29.52;45.49
51524;BME280;37610;51.790;21.590;2022-08-11T14:43:49;100770.37;;;29.30;45.12
51524;BME280;37610;51.790;21.590;2022-08-11T14:48:30;100792.23;;;28.51;45.57
51524;BME280;37610;51.790;21.590;2022-08-11T14:53:28;100764.10;;;27.09;44.92
51524;BME280;37610;51.790;21.590;2022-08-11T14:58:14;100745.46;;;25.54;46.83
51524;BME280;37610;51.790;21.590;2022-08-11T15:03:27;100741.88;;;24.36;49.05
51524;BME280;37610;51.790;21.590;2022-08-11T15:08:21;100745.44;;;23.09;51.62
51524;BME280;37610;51.790;21.590;2022-08-11T15:13:32;100738.38;;;22.22;54.29
51524;BME280;37610;51.790;21.590;2022-08-11T15:18:23;100735.33;;;22.02;56.09
51524;BME280;37610;51.790;21.590;2022-08-11T15:23:21;100735.52;;;21.84;56.32
51524;BME280;37610;51.790;21.590;2022-08-11T15:28:11;100730.88;;;21.82;58.12
51524;BME280;37610;51.790;21.590;2022-08-11T15:32:58;100728.79;;;22.33;56.16
51524;BME280;37610;51.790;21.590;2022-08-11T15:37:46;100728.71;;;22.77;54.43
51524;BME280;37610;51.790;21.590;2022-08-11T15:43:01;100728.33;;;22.96;54.34
51524;BME280;37610;51.790;21.590;2022-08-11T15:47:48;100729.63;;;22.92;54.33
51524;BME280;37610;51.790;21.590;2022-08-11T15:52:55;100737.30;;;23.54;54.97
51524;BME280;37610;51.790;21.590;2022-08-11T15:57:37;100754.14;;;24.35;54.27
51524;BME280;37610;51.790;21.590;2022-08-11T16:02:44;100773.58;;;24.65;53.40
51524;BME280;37610;51.790;21.590;2022-08-11T16:07:29;100780.84;;;24.28;52.08
51524;BME280;37610;51.790;21.590;2022-08-11T16:12:30;100779.05;;;23.93;52.47
51524;BME280;37610;51.790;21.590;2022-08-11T16:17:10;100783.48;;;23.58;53.07
51524;BME280;37610;51.790;21.590;2022-08-11T16:22:08;100775.52;;;23.21;53.58
51524;BME280;37610;51.790;21.590;2022-08-11T16:27:05;100758.09;;;22.80;54.31
51524;BME280;37610;51.790;21.590;2022-08-11T16:31:56;100746.84;;;22.21;54.99
51524;BME280;37610;51.790;21.590;2022-08-11T16:37:04;100741.11;;;21.78;56.36
51524;BME280;37610;51.790;21.590;2022-08-11T16:41:44;100736.64;;;21.51;57.09
51524;BME280;37610;51.790;21.590;2022-08-11T16:46:24;100731.47;;;21.21;57.98
51524;BME280;37610;51.790;21.590;2022-08-11T16:51:21;100727.67;;;21.02;59.03
51524;BME280;37610;51.790;21.590;2022-08-11T16:56:30;100724.45;;;20.89;59.45
51524;BME280;37610;51.790;21.590;2022-08-11T17:01:34;100714.38;;;20.81;59.85
51524;BME280;37610;51.790;21.590;2022-08-11T17:06:52;100709.27;;;20.78;60.54
51524;BME280;37610;51.790;21.590;2022-08-11T17:11:57;100710.59;;;20.63;61.01
51524;BME280;37610;51.790;21.590;2022-08-11T17:17:02;100716.16;;;20.35;61.05
51524;BME280;37610;51.790;21.590;2022-08-11T17:22:07;100716.46;;;20.13;62.22
51524;BME280;37610;51.790;21.590;2022-08-11T17:27:12;100713.59;;;20.03;62.91
51524;BME280;37610;51.790;21.590;2022-08-11T17:31:58;100711.77;;;19.88;62.76
51524;BME280;37610;51.790;21.590;2022-08-11T17:36:37;100712.52;;;19.72;63.83
51524;BME280;37610;51.790;21.590;2022-08-11T17:41:37;100718.27;;;19.60;64.81
51524;BME280;37610;51.790;21.590;2022-08-11T17:46:35;100721.48;;;19.55;64.54
51524;BME280;37610;51.790;21.590;2022-08-11T17:51:18;100726.16;;;19.51;65.66
51524;BME280;37610;51.790;21.590;2022-08-11T17:55:58;100728.66;;;19.37;66.56
51524;BME280;37610;51.790;21.590;2022-08-11T18:00:38;100727.50;;;19.18;66.61
51524;BME280;37610;51.790;21.590;2022-08-11T18:05:22;100727.14;;;19.06;66.84
51524;BME280;37610;51.790;21.590;2022-08-11T18:10:43;100733.59;;;19.14;67.15
51524;BME280;37610;51.790;21.590;2022-08-11T18:15:22;100733.92;;;19.19;66.96
51524;BME280;37610;51.790;21.590;2022-08-11T18:20:03;100743.76;;;19.13;66.42
51524;BME280;37610;51.790;21.590;2022-08-11T18:24:47;100743.66;;;18.84;67.09
51524;BME280;37610;51.790;21.590;2022-08-11T18:29:34;100738.09;;;18.68;66.92
51524;BME280;37610;51.790;21.590;2022-08-11T18:34:15;100743.44;;;18.53;68.23
51524;BME280;37610;51.790;21.590;2022-08-11T18:38:55;100744.82;;;18.46;68.15
51524;BME280;37610;51.790;21.590;2022-08-11T18:43:36;100748.73;;;18.46;68.02
51524;BME280;37610;51.790;21.590;2022-08-11T18:48:16;100755.20;;;18.25;68.51
51524;BME280;37610;51.790;21.590;2022-08-11T18:52:55;100755.27;;;18.12;68.82
51524;BME280;37610;51.790;21.590;2022-08-11T18:57:35;100756.27;;;18.13;69.11
51524;BME280;37610;51.790;21.590;2022-08-11T19:02:15;100752.48;;;18.15;69.04
51524;BME280;37610;51.790;21.590;2022-08-11T19:06:56;100758.68;;;18.23;68.82
51524;BME280;37610;51.790;21.590;2022-08-11T19:11:36;100763.05;;;18.28;68.74
51524;BME280;37610;51.790;21.590;2022-08-11T19:16:16;100763.64;;;18.29;68.55
51524;BME280;37610;51.790;21.590;2022-08-11T19:20:56;100756.45;;;18.30;68.09
51524;BME280;37610;51.790;21.590;2022-08-11T19:25:37;100758.86;;;18.27;67.80
51524;BME280;37610;51.790;21.590;2022-08-11T19:30:17;100752.43;;;18.26;67.67
51524;BME280;37610;51.790;21.590;2022-08-11T19:34:57;100749.85;;;18.25;67.59
51524;BME280;37610;51.790;21.590;2022-08-11T19:39:38;100746.38;;;18.19;67.34
51524;BME280;37610;51.790;21.590;2022-08-11T19:44:17;100746.23;;;18.10;67.42
51524;BME280;37610;51.790;21.590;2022-08-11T19:48:57;100745.30;;;18.02;67.73
51524;BME280;37610;51.790;21.590;2022-08-11T19:53:37;100751.19;;;17.93;67.84
51524;BME280;37610;51.790;21.590;2022-08-11T19:58:17;100743.30;;;17.88;67.96
51524;BME280;37610;51.790;21.590;2022-08-11T20:03:01;100741.80;;;17.71;68.37
51524;BME280;37610;51.790;21.590;2022-08-11T20:07:38;100736.20;;;17.63;68.29
51524;BME280;37610;51.790;21.590;2022-08-11T20:12:18;100724.27;;;17.68;68.31
51524;BME280;37610;51.790;21.590;2022-08-11T20:16:58;100724.70;;;17.68;68.24
51524;BME280;37610;51.790;21.590;2022-08-11T20:21:38;100732.86;;;17.65;68.41
51524;BME280;37610;51.790;21.590;2022-08-11T20:26:26;100732.73;;;17.66;68.12
51524;BME280;37610;51.790;21.590;2022-08-11T20:31:06;100729.88;;;17.41;68.67
51524;BME280;37610;51.790;21.590;2022-08-11T20:35:46;100737.44;;;17.28;69.86
51524;BME280;37610;51.790;21.590;2022-08-11T20:40:26;100731.55;;;17.30;69.74
51524;BME280;37610;51.790;21.590;2022-08-11T20:45:07;100736.09;;;17.39;69.89
51524;BME280;37610;51.790;21.590;2022-08-11T20:49:47;100738.13;;;17.53;69.88
51524;BME280;37610;51.790;21.590;2022-08-11T20:54:27;100735.64;;;17.62;69.75
51524;BME280;37610;51.790;21.590;2022-08-11T20:59:07;100737.29;;;17.69;69.54
51524;BME280;37610;51.790;21.590;2022-08-11T21:03:47;100736.44;;;17.74;69.43
51524;BME280;37610;51.790;21.590;2022-08-11T21:08:28;100730.99;;;17.64;69.31
51524;BME280;37610;51.790;21.590;2022-08-11T21:13:07;100729.47;;;17.69;69.57
51524;BME280;37610;51.790;21.590;2022-08-11T21:17:48;100736.86;;;17.77;69.77
51524;BME280;37610;51.790;21.590;2022-08-11T21:22:49;100741.34;;;17.73;69.49
51524;BME280;37610;51.790;21.590;2022-08-11T21:27:24;100746.38;;;17.59;69.94
51524;BME280;37610;51.790;21.590;2022-08-11T21:32:04;100747.20;;;17.69;70.40
51524;BME280;37610;51.790;21.590;2022-08-11T21:36:44;100750.70;;;17.65;70.09
51524;BME280;37610;51.790;21.590;2022-08-11T21:41:24;100750.23;;;17.60;70.39
51524;BME280;37610;51.790;21.590;2022-08-11T21:46:04;100752.83;;;17.70;70.71
51524;BME280;37610;51.790;21.590;2022-08-11T21:50:45;100753.06;;;17.83;70.63
51524;BME280;37610;51.790;21.590;2022-08-11T21:55:25;100744.81;;;17.92;70.43
51524;BME280;37610;51.790;21.590;2022-08-11T22:00:06;100746.94;;;17.94;70.24
51524;BME280;37610;51.790;21.590;2022-08-11T22:04:46;100746.85;;;17.98;70.18
51524;BME280;37610;51.790;21.590;2022-08-11T22:09:26;100739.80;;;18.06;70.18
51524;BME280;37610;51.790;21.590;2022-08-11T22:14:06;100739.58;;;18.11;69.98
51524;BME280;37610;51.790;21.590;2022-08-11T22:18:46;100738.30;;;18.16;69.81
51524;BME280;37610;51.790;21.590;2022-08-11T22:23:26;100735.31;;;18.19;69.57
51524;BME280;37610;51.790;21.590;2022-08-11T22:28:06;100730.62;;;18.19;69.69
51524;BME280;37610;51.790;21.590;2022-08-11T22:32:46;100727.53;;;18.16;69.38
51524;BME280;37610;51.790;21.590;2022-08-11T22:37:26;100730.36;;;18.03;69.93
51524;BME280;37610;51.790;21.590;2022-08-11T22:42:07;100722.08;;;18.07;69.94
51524;BME280;37610;51.790;21.590;2022-08-11T22:46:47;100721.31;;;18.12;69.89
51524;BME280;37610;51.790;21.590;2022-08-11T22:51:08;100720.98;;;18.14;69.73
51524;BME280;37610;51.790;21.590;2022-08-11T22:55:28;100722.31;;;18.09;69.37
51524;BME280;37610;51.790;21.590;2022-08-11T22:59:49;100721.57;;;17.92;69.49
51524;BME280;37610;51.790;21.590;2022-08-11T23:04:09;100718.28;;;17.74;69.93
51524;BME280;37610;51.790;21.590;2022-08-11T23:08:31;100712.34;;;17.64;70.05
51524;BME280;37610;51.790;21.590;2022-08-11T23:12:52;100710.20;;;17.55;70.04
51524;BME280;37610;51.790;21.590;2022-08-11T23:17:12;100709.82;;;17.45;70.10
51524;BME280;37610;51.790;21.590;2022-08-11T23:21:33;100707.45;;;17.32;70.46
51524;BME280;37610;51.790;21.590;2022-08-11T23:25:53;100711.96;;;17.22;70.62
51524;BME280;37610;51.790;21.590;2022-08-11T23:30:14;100713.83;;;17.14;70.53
51524;BME280;37610;51.790;21.590;2022-08-11T23:34:35;100711.04;;;17.02;71.13
51524;BME280;37610;51.790;21.590;2022-08-11T23:38:58;100708.08;;;17.06;71.13
51524;BME280;37610;51.790;21.590;2022-08-11T23:43:19;100707.34;;;17.04;71.14
51524;BME280;37610;51.790;21.590;2022-08-11T23:47:40;100699.07;;;16.85;71.55
51524;BME280;37610;51.790;21.590;2022-08-11T23:52:00;100703.09;;;16.75;71.95
51524;BME280;37610;51.790;21.590;2022-08-11T23:56:20;100692.02;;;16.85;72.16
